Huvudsida
METAR-TAF:

METAR-TAF

Flygplatser :

Leuchars Station

Leuchars, Skottland

latitud: 56-23N, longitud: 002-52W, höjd: 12 m

Aktuellt väderrapport

Denna rapport gjordes för 50 minuter sedan, klockan 17:50 UTC
Vind 9 kt från ost/sydost
Temperatur 18°C
Fuktighet 64%
Tryck 1025 hPa
Sikt 10 km eller mer
Inga moln under 1 500 m eller inga cumulonimbus

METAR: EGQL 291750Z 11009KT CAVOK 18/11 Q1025 RMK BLU

Tid: 19:40 (18:40 UTC)

Väderprognos

Denna rapport gjordes för 2 timmar och 15 minuter sedan, klockan 16:25 UTC
Prognos gäller från 29 kl. 18 UTC till 30 kl. 03 UTC
Vind 10 kt från ost/sydost
Sikt 10 km eller mer
Inga moln under 1 500 m eller inga cumulonimbus

TAF: EGQL 291625Z 2918/3003 11010KT CAVOK

Aktuella väderrapporter och prognoser från 4000 flygplatser (METAR- och TAF-rapporter).

De tillgängliga stationerna syns som gula och röda prickar på kartan.

För musen över prickarna för att se namnen på stationerna.

Klicka sedan för att få väderrapporter och prognoser.

För att ändra kartan: Klicka på de gröna knapparna med ett svart kors på för att zooma in; den gröna knappen med ett streck på för att zooma ut; eller på de gröna pilarna för angränsande kartor.


METAR-TAF: